Latest Coastal Weather Observations for Cape Ferguson

IDQ60701

Issued at 7:32 pm EST Monday 10 August 2020 (issued every 10 minutes, with the page automatically refreshed every 10 minutes)

About coastal observations | Map of coastal stations | Coastal observations for QLD | Marine services | Other Formats
Station Details ID: 032182 Name: CAPE FERGUSON NTC AWS Lat: -19.28 Lon: 147.06 Height: 0.0 m
Data from the previous 72 hours. | See also: Recent months for locations in Queensland
Date/Time
EST
Wind Sea
Height
m
Swell Vis
km
Cloud Weather Temp
°C
Press
hPa
Rain since
9am
mm
Dir  Spd
kts
Gust
kts
Height
m
Period
s
Dir
10/07:30pm NNW 3 5 - - - - - - - - 1015.7 -
10/07:00pm NNW 2 5 - - - - - - - - 1015.3 -
10/06:30pm NNE 5 9 - - - - - - - - 1014.8 -
10/06:00pm ENE 7 12 - - - - - - - - 1014.7 -
10/05:30pm NNE 6 11 - - - - - - - - 1014.4 -
10/05:00pm NE 6 10 - - - - - - - - 1014.2 -
10/04:30pm NNE 7 10 - - - - - - - - 1014.1 -
10/04:00pm NE 6 9 - - - - - - - - 1013.9 -
10/03:30pm NNE 4 8 - - - - - - - - 1014.0 -
10/03:00pm NE 4 9 - - - - - - - - 1014.0 -
10/02:30pm NNE 6 9 - - - - - - - - 1014.3 -
10/02:00pm NNE 5 9 - - - - - - - - 1014.6 -
10/01:30pm NE 5 9 - - - - - - - - 1015.0 -
10/01:00pm ESE 5 7 - - - - - - - - 1015.5 -
10/12:30pm ESE 4 6 - - - - - - - - 1015.8 -
10/12:00pm SE 6 7 - - - - - - - - 1016.4 -
10/11:30am SSE 8 11 - - - - - - - - 1016.8 -
10/11:00am SSE 10 12 - - - - - - - - 1017.4 -
10/10:30am SSE 10 13 - - - - - - - - 1017.6 -
10/10:00am S 12 16 - - - - - - - - 1017.7 -
10/09:30am S 11 16 - - - - - - - - 1017.7 -
10/09:00am S 9 13 - - - - - - - - 1017.7 -
10/08:30am SSW 8 14 - - - - - - - - 1017.6 -
10/08:00am SSW 8 12 - - - - - - - - 1017.4 -
10/07:30am SW 5 10 - - - - - - - - 1017.3 -
10/07:00am WSW 7 10 - - - - - - - - 1017.0 -
10/06:30am W 7 9 - - - - - - - - 1016.6 -
10/06:00am WNW 8 10 - - - - - - - - 1016.3 -
10/05:30am SW 8 12 - - - - - - - - 1016.0 -
10/05:00am SSW 5 7 - - - - - - - - 1015.7 -
10/04:30am WNW 5 7 - - - - - - - - 1015.6 -
10/04:00am W 4 6 - - - - - - - - 1015.5 -
10/03:30am NW 2 3 - - - - - - - - 1015.2 -
10/03:00am WNW 2 3 - - - - - - - - 1015.2 -
10/02:30am WNW 2 2 - - - - - - - - 1015.4 -
10/02:00am WNW 3 4 - - - - - - - - 1015.4 -
10/01:30am WNW 2 3 - - - - - - - - 1015.7 -
10/01:00am WNW 2 3 - - - - - - - - 1015.9 -
10/12:30am W 2 3 - - - - - - - - 1016.1 -
10/12:00am W 4 6 - - - - - - - - 1016.1 -
 
Date/Time
EST
Wind Sea
Height
m
Swell Vis
km
Cloud Weather Temp
°C
Press
hPa
Rain since
9am
mm
Dir  Spd
kts
Gust
kts
Height
m
Period
s
Dir
09/11:30pm WNW 4 5 - - - - - - - - 1016.0 -
09/11:00pm NW 3 4 - - - - - - - - 1015.9 -
09/10:30pm NW 2 4 - - - - - - - - 1015.9 -
09/10:00pm CALM 0 1 - - - - - - - - 1015.9 -
09/09:30pm CALM 0 1 - - - - - - - - 1015.5 -
09/09:00pm NW 2 3 - - - - - - - - 1015.4 -
09/08:30pm NE 2 3 - - - - - - - - 1015.3 -
09/08:00pm NNE 3 5 - - - - - - - - 1015.1 -
09/07:30pm NNE 5 7 - - - - - - - - 1014.5 -
09/07:00pm NE 4 7 - - - - - - - - 1014.1 -
09/06:30pm NE 4 8 - - - - - - - - 1013.8 -
09/06:00pm NNE 5 8 - - - - - - - - 1013.3 -
09/05:30pm N 4 5 - - - - - - - - 1012.9 -
09/05:00pm NNE 3 6 - - - - - - - - 1012.6 -
09/04:30pm ENE 3 4 - - - - - - - - 1012.5 -
09/04:00pm E 4 5 - - - - - - - - 1012.6 -
09/03:30pm E 4 5 - - - - - - - - 1012.6 -
09/03:00pm SE 6 9 - - - - - - - - 1012.7 -
09/02:30pm SE 6 9 - - - - - - - - 1013.0 -
09/02:00pm ESE 6 9 - - - - - - - - 1013.3 -
09/01:30pm ESE 6 7 - - - - - - - - 1013.5 -
09/01:00pm ESE 7 8 - - - - - - - - 1013.9 -
09/12:30pm ESE 5 6 - - - - - - - - 1014.2 -
09/12:00pm SE 5 6 - - - - - - - - 1014.8 -
09/11:30am S 6 8 - - - - - - - - 1015.5 -
09/11:00am S 9 12 - - - - - - - - 1016.1 -
09/10:30am S 9 11 - - - - - - - - 1016.4 -
09/10:00am S 11 13 - - - - - - - - 1016.6 -
09/09:30am S 11 13 - - - - - - - - 1016.5 -
09/09:00am SSW 5 10 - - - - - - - - 1016.5 -
09/08:30am SSW 6 9 - - - - - - - - 1016.3 -
09/08:00am S 7 9 - - - - - - - - 1016.1 -
09/07:30am SSW 5 7 - - - - - - - - 1015.9 -
09/07:00am WSW 5 7 - - - - - - - - 1015.7 -
09/06:30am W 4 7 - - - - - - - - 1015.4 -
09/06:00am SW 3 6 - - - - - - - - 1014.9 -
09/05:30am SW 4 6 - - - - - - - - 1014.3 -
09/05:00am SSE 8 9 - - - - - - - - 1014.1 -
09/04:30am S 5 7 - - - - - - - - 1014.1 -
09/04:00am SSE 8 11 - - - - - - - - 1014.1 -
09/03:30am SSE 7 9 - - - - - - - - 1014.1 -
09/03:00am SSE 11 13 - - - - - - - - 1014.2 -
09/02:30am SE 8 11 - - - - - - - - 1014.3 -
09/02:00am SE 8 9 - - - - - - - - 1014.4 -
09/01:30am SE 7 9 - - - - - - - - 1014.7 -
09/01:00am SE 7 9 - - - - - - - - 1014.9 -
09/12:30am ESE 5 7 - - - - - - - - 1015.2 -
09/12:00am ESE 5 6 - - - - - - - - 1015.1 -
 
Date/Time
EST
Wind Sea
Height
m
Swell Vis
km
Cloud Weather Temp
°C
Press
hPa
Rain since
9am
mm
Dir  Spd
kts
Gust
kts
Height
m
Period
s
Dir
08/11:30pm ESE 5 6 - - - - - - - - 1015.2 -
08/11:00pm ESE 1 3 - - - - - - - - 1014.9 -
08/10:30pm E 3 5 - - - - - - - - 1014.8 -
08/10:00pm ESE 4 5 - - - - - - - - 1014.9 -
08/09:30pm E 4 7 - - - - - - - - 1015.0 -
08/09:00pm E 2 4 - - - - - - - - 1014.7 -
08/08:30pm SE 1 3 - - - - - - - - 1014.6 -
08/08:00pm WSW 2 3 - - - - - - - - 1014.4 -
08/07:30pm WNW 3 5 - - - - - - - - 1014.3 -
08/07:00pm CALM 0 2 - - - - - - - - 1014.1 -
08/06:30pm ENE 3 5 - - - - - - - - 1013.8 -
08/06:00pm E 4 7 - - - - - - - - 1013.4 -
08/05:30pm E 6 9 - - - - - - - - 1013.1 -
08/05:00pm SE 7 8 - - - - - - - - 1012.7 -
08/04:30pm SE 8 11 - - - - - - - - 1012.4 -
08/04:00pm SE 9 11 - - - - - - - - 1012.2 -
08/03:30pm SE 9 12 - - - - - - - - 1011.9 -
08/03:00pm SE 9 12 - - - - - - - - 1011.8 -
08/02:30pm SE 10 12 - - - - - - - - 1012.1 -
08/02:00pm SE 10 11 - - - - - - - - 1012.2 -
08/01:30pm SE 9 11 - - - - - - - - 1012.5 -
08/01:00pm SE 10 12 - - - - - - - - 1012.9 -
08/12:30pm SE 10 11 - - - - - - - - 1013.3 -
08/12:00pm SE 9 12 - - - - - - - - 1014.1 -
08/11:30am SSE 10 12 - - - - - - - - 1014.7 -
08/11:00am S 6 9 - - - - - - - - 1014.9 -
08/10:30am SSE 11 13 - - - - - - - - 1015.2 -
08/10:00am SSE 10 13 - - - - - - - - 1015.3 -
08/09:30am SSE 8 10 - - - - - - - - 1015.4 -
08/09:00am S 5 6 - - - - - - - - 1015.2 -
08/08:30am S 8 10 - - - - - - - - 1015.0 -
08/08:00am S 3 8 - - - - - - - - 1014.6 -
08/07:30am NW 2 4 - - - - - - - - 1014.4 -
08/07:00am ENE 3 5 - - - - - - - - 1013.9 -
08/06:30am NNW 3 6 - - - - - - - - 1013.4 -
08/06:00am SSE 3 5 - - - - - - - - 1013.2 -
08/05:30am S 5 7 - - - - - - - - 1012.6 -
08/05:00am CALM 0 2 - - - - - - - - 1012.3 -
08/04:30am CALM 0 1 - - - - - - - - 1012.1 -
08/04:00am CALM 0 1 - - - - - - - - 1012.1 -
08/03:30am CALM 0 1 - - - - - - - - 1011.9 -
08/03:00am WNW 1 3 - - - - - - - - 1011.9 -
08/02:30am W 2 3 - - - - - - - - 1012.0 -
08/02:00am W 1 2 - - - - - - - - 1012.2 -
08/01:30am SSW 2 3 - - - - - - - - 1012.4 -
08/01:00am SSE 3 4 - - - - - - - - 1012.5 -
08/12:30am SE 4 5 - - - - - - - - 1012.7 -
08/12:00am ENE 2 4 - - - - - - - - 1012.9 -
 
Date/Time
EST
Wind Sea
Height
m
Swell Vis
km
Cloud Weather Temp
°C
Press
hPa
Rain since
9am
mm
Dir  Spd
kts
Gust
kts
Height
m
Period
s
Dir
07/11:30pm WNW 2 4 - - - - - - - - 1013.0 -
07/11:00pm ENE 4 9 - - - - - - - - 1013.1 -
07/10:30pm NNE 6 10 - - - - - - - - 1013.2 -
07/10:00pm N 4 9 - - - - - - - - 1013.6 -
07/09:30pm NE 4 8 - - - - - - - - 1013.4 -
07/09:00pm NNE 4 8 - - - - - - - - 1013.3 -
07/08:30pm E 3 7 - - - - - - - - 1012.9 -
07/08:00pm SE 3 7 - - - - - - - - 1012.6 -

Other formats

Comma delimited format used in spreadsheet applications
http://www.bom.gov.au/fwo/IDQ60701/IDQ60701.94297.axf

JavaScript Object Notation format (JSON) in row-major order
http://www.bom.gov.au/fwo/IDQ60701/IDQ60701.94297.json

Data quality

Most of these data are generated automatically and are frequently updated. Quality checks on data are not normally performed. It is possible for incorrect values to appear. Refer to information at About Latest Weather Observations and please check the disclaimer before using these data.